Terminal Aerodrome Forecast
Issued by NWS

Home | Current Version | Previous Version | Text Only | Print | Product List | Glossary On
Versions: 1 2 3 4 5 6 7 8 9 10 11 12 13
260
FTUS42 TJSJ 251143
TAFJSJ
TAF
TJSJ 251143Z 2512/2612 VRB06KT P6SM FEW020 FEW060
     FM251450 08011KT P6SM SCT035 SCT070
     FM252300 14005KT P6SM FEW035=

USA.gov is the U.S. government's official web portal to all federal, state and local government web resources and services.